sensor_id;sensor_type;location;lat;lon;timestamp;pressure;altitude;pressure_sealevel;temperature;humidity
42727;BME280;28372;56.832;60.658;2023-05-10T00:01:03;98627.13;;;7.29;33.73
42727;BME280;28372;56.832;60.658;2023-05-10T00:03:30;98628.59;;;7.27;34.21
42727;BME280;28372;56.832;60.658;2023-05-10T00:05:58;98632.19;;;7.31;34.23
42727;BME280;28372;56.832;60.658;2023-05-10T00:08:25;98627.72;;;7.35;34.61
42727;BME280;28372;56.832;60.658;2023-05-10T00:10:53;98630.41;;;7.35;34.39
42727;BME280;28372;56.832;60.658;2023-05-10T00:13:21;98627.25;;;7.33;34.29
42727;BME280;28372;56.832;60.658;2023-05-10T00:15:49;98629.28;;;7.36;34.26
42727;BME280;28372;56.832;60.658;2023-05-10T00:18:17;98633.91;;;7.35;35.03
42727;BME280;28372;56.832;60.658;2023-05-10T00:20:45;98631.66;;;7.37;34.90
42727;BME280;28372;56.832;60.658;2023-05-10T00:23:13;98628.00;;;7.42;34.72
42727;BME280;28372;56.832;60.658;2023-05-10T00:25:40;98626.06;;;7.43;34.97
42727;BME280;28372;56.832;60.658;2023-05-10T00:28:08;98626.84;;;7.43;35.29
42727;BME280;28372;56.832;60.658;2023-05-10T00:30:36;98628.44;;;7.44;35.39
42727;BME280;28372;56.832;60.658;2023-05-10T00:33:04;98628.56;;;7.48;35.28
42727;BME280;28372;56.832;60.658;2023-05-10T00:35:32;98617.66;;;7.44;35.46
42727;BME280;28372;56.832;60.658;2023-05-10T00:37:59;98623.31;;;7.51;35.75
42727;BME280;28372;56.832;60.658;2023-05-10T00:40:27;98627.56;;;7.52;35.83
42727;BME280;28372;56.832;60.658;2023-05-10T00:42:59;98624.69;;;7.58;35.63
42727;BME280;28372;56.832;60.658;2023-05-10T00:45:30;98628.41;;;7.65;35.84
42727;BME280;28372;56.832;60.658;2023-05-10T00:48:00;98630.09;;;7.70;35.77
42727;BME280;28372;56.832;60.658;2023-05-10T00:50:28;98625.84;;;7.69;35.53
42727;BME280;28372;56.832;60.658;2023-05-10T00:52:57;98626.53;;;7.78;35.84
42727;BME280;28372;56.832;60.658;2023-05-10T00:55:25;98619.25;;;7.79;35.24
42727;BME280;28372;56.832;60.658;2023-05-10T00:57:53;98615.56;;;7.83;35.47
42727;BME280;28372;56.832;60.658;2023-05-10T01:00:21;98619.16;;;7.87;35.64
42727;BME280;28372;56.832;60.658;2023-05-10T01:02:49;98617.06;;;7.93;35.58
42727;BME280;28372;56.832;60.658;2023-05-10T01:05:17;98615.59;;;7.96;35.33
42727;BME280;28372;56.832;60.658;2023-05-10T01:07:45;98613.47;;;8.01;35.40
42727;BME280;28372;56.832;60.658;2023-05-10T01:10:12;98617.41;;;8.04;34.77
42727;BME280;28372;56.832;60.658;2023-05-10T01:12:43;98625.84;;;8.15;35.20
42727;BME280;28372;56.832;60.658;2023-05-10T01:15:12;98604.63;;;8.13;34.91
42727;BME280;28372;56.832;60.658;2023-05-10T01:17:42;98611.13;;;8.24;35.58
42727;BME280;28372;56.832;60.658;2023-05-10T01:20:12;98604.63;;;8.26;35.21
42727;BME280;28372;56.832;60.658;2023-05-10T01:28:23;98616.69;;;8.65;34.95
42727;BME280;28372;56.832;60.658;2023-05-10T01:31:14;98602.22;;;8.70;34.79
42727;BME280;28372;56.832;60.658;2023-05-10T01:33:56;98604.88;;;8.82;34.77
42727;BME280;28372;56.832;60.658;2023-05-10T01:41:49;98593.25;;;9.06;34.52
42727;BME280;28372;56.832;60.658;2023-05-10T01:44:39;98594.03;;;9.07;33.99
42727;BME280;28372;56.832;60.658;2023-05-10T01:47:09;98592.34;;;9.15;34.15
42727;BME280;28372;56.832;60.658;2023-05-10T01:49:45;98594.22;;;9.26;34.20
42727;BME280;28372;56.832;60.658;2023-05-10T01:52:17;98607.91;;;9.34;33.78
42727;BME280;28372;56.832;60.658;2023-05-10T01:54:55;98605.94;;;9.47;33.46
42727;BME280;28372;56.832;60.658;2023-05-10T01:57:26;98606.06;;;9.50;32.68
42727;BME280;28372;56.832;60.658;2023-05-10T01:59:56;98593.66;;;9.49;32.56
42727;BME280;28372;56.832;60.658;2023-05-10T02:02:26;98593.09;;;9.56;32.72
42727;BME280;28372;56.832;60.658;2023-05-10T02:04:55;98591.47;;;9.67;32.47
42727;BME280;28372;56.832;60.658;2023-05-10T02:07:24;98588.94;;;9.74;31.92
42727;BME280;28372;56.832;60.658;2023-05-10T02:09:55;98583.38;;;9.83;31.83
42727;BME280;28372;56.832;60.658;2023-05-10T02:12:24;98579.72;;;9.91;31.86
42727;BME280;28372;56.832;60.658;2023-05-10T02:14:53;98571.47;;;10.00;31.43
42727;BME280;28372;56.832;60.658;2023-05-10T02:17:23;98580.28;;;10.13;31.25
42727;BME280;28372;56.832;60.658;2023-05-10T02:19:53;98579.84;;;10.27;30.92
42727;BME280;28372;56.832;60.658;2023-05-10T02:22:22;98581.25;;;10.37;30.46
42727;BME280;28372;56.832;60.658;2023-05-10T02:24:53;98576.00;;;10.44;30.19
42727;BME280;28372;56.832;60.658;2023-05-10T02:27:21;98581.94;;;10.50;30.44
42727;BME280;28372;56.832;60.658;2023-05-10T02:29:51;98577.03;;;10.55;30.37
42727;BME280;28372;56.832;60.658;2023-05-10T02:32:22;98572.38;;;10.72;29.98
42727;BME280;28372;56.832;60.658;2023-05-10T02:34:52;98563.41;;;10.68;29.97
42727;BME280;28372;56.832;60.658;2023-05-10T02:37:20;98576.31;;;10.94;29.73
42727;BME280;28372;56.832;60.658;2023-05-10T02:39:50;98574.78;;;11.12;29.75
42727;BME280;28372;56.832;60.658;2023-05-10T02:42:23;98587.53;;;11.31;29.74
42727;BME280;28372;56.832;60.658;2023-05-10T02:45:00;98576.25;;;11.69;29.01
42727;BME280;28372;56.832;60.658;2023-05-10T02:47:30;98573.47;;;12.58;29.02
42727;BME280;28372;56.832;60.658;2023-05-10T02:49:58;98564.25;;;13.57;27.33
42727;BME280;28372;56.832;60.658;2023-05-10T02:52:29;98574.72;;;14.45;25.64
42727;BME280;28372;56.832;60.658;2023-05-10T02:55:01;98569.81;;;15.42;24.28
42727;BME280;28372;56.832;60.658;2023-05-10T02:57:34;98568.03;;;16.11;22.76
42727;BME280;28372;56.832;60.658;2023-05-10T03:00:03;98558.56;;;16.88;22.41
42727;BME280;28372;56.832;60.658;2023-05-10T03:02:31;98563.78;;;17.49;21.45
42727;BME280;28372;56.832;60.658;2023-05-10T03:05:00;98567.78;;;18.04;20.46
42727;BME280;28372;56.832;60.658;2023-05-10T03:07:29;98563.16;;;18.43;20.36
42727;BME280;28372;56.832;60.658;2023-05-10T03:09:58;98570.16;;;18.89;19.64
42727;BME280;28372;56.832;60.658;2023-05-10T03:15:56;98563.28;;;19.70;19.70
42727;BME280;28372;56.832;60.658;2023-05-10T03:18:37;98565.94;;;20.28;18.79
42727;BME280;28372;56.832;60.658;2023-05-10T03:21:08;98561.56;;;20.78;17.68
42727;BME280;28372;56.832;60.658;2023-05-10T03:23:43;98552.22;;;20.96;18.21
42727;BME280;28372;56.832;60.658;2023-05-10T03:26:25;98559.56;;;21.39;18.31
42727;BME280;28372;56.832;60.658;2023-05-10T03:29:02;98556.41;;;22.10;16.69
42727;BME280;28372;56.832;60.658;2023-05-10T03:31:30;98555.13;;;22.48;16.97
42727;BME280;28372;56.832;60.658;2023-05-10T03:33:59;98555.81;;;23.10;16.06
42727;BME280;28372;56.832;60.658;2023-05-10T03:36:27;98545.41;;;23.70;15.61
42727;BME280;28372;56.832;60.658;2023-05-10T03:38:55;98548.38;;;24.14;15.22
42727;BME280;28372;56.832;60.658;2023-05-10T03:41:23;98550.88;;;24.69;14.80
42727;BME280;28372;56.832;60.658;2023-05-10T03:43:53;98553.31;;;25.11;14.57
42727;BME280;28372;56.832;60.658;2023-05-10T03:46:21;98548.97;;;25.55;14.36
42727;BME280;28372;56.832;60.658;2023-05-10T03:48:49;98544.88;;;26.09;13.70
42727;BME280;28372;56.832;60.658;2023-05-10T03:51:17;98543.22;;;26.49;13.28
42727;BME280;28372;56.832;60.658;2023-05-10T03:53:44;98543.06;;;26.80;12.89
42727;BME280;28372;56.832;60.658;2023-05-10T03:56:12;98537.00;;;27.19;12.50
42727;BME280;28372;56.832;60.658;2023-05-10T03:58:40;98540.13;;;27.64;12.38
42727;BME280;28372;56.832;60.658;2023-05-10T04:01:07;98542.69;;;28.10;12.21
42727;BME280;28372;56.832;60.658;2023-05-10T04:03:35;98528.03;;;28.49;11.92
42727;BME280;28372;56.832;60.658;2023-05-10T04:06:05;98539.47;;;28.90;11.33
42727;BME280;28372;56.832;60.658;2023-05-10T04:08:32;98530.31;;;28.89;11.37
42727;BME280;28372;56.832;60.658;2023-05-10T04:11:10;98523.63;;;28.57;11.90
42727;BME280;28372;56.832;60.658;2023-05-10T04:13:38;98528.09;;;28.94;11.25
42727;BME280;28372;56.832;60.658;2023-05-10T04:16:06;98527.81;;;29.21;11.55
42727;BME280;28372;56.832;60.658;2023-05-10T04:18:33;98518.19;;;29.67;10.61
42727;BME280;28372;56.832;60.658;2023-05-10T04:21:01;98515.25;;;29.92;10.58
42727;BME280;28372;56.832;60.658;2023-05-10T04:23:28;98519.28;;;30.11;10.72
42727;BME280;28372;56.832;60.658;2023-05-10T04:26:00;98520.06;;;30.32;10.74
42727;BME280;28372;56.832;60.658;2023-05-10T04:28:28;98514.13;;;30.45;10.48
42727;BME280;28372;56.832;60.658;2023-05-10T04:31:05;98506.19;;;30.58;10.06
42727;BME280;28372;56.832;60.658;2023-05-10T04:33:33;98496.22;;;30.78;10.00
42727;BME280;28372;56.832;60.658;2023-05-10T04:36:01;98508.47;;;30.60;9.99
42727;BME280;28372;56.832;60.658;2023-05-10T04:38:29;98508.97;;;30.38;9.70
42727;BME280;28372;56.832;60.658;2023-05-10T04:41:09;98496.53;;;30.39;9.84
42727;BME280;28372;56.832;60.658;2023-05-10T04:43:38;98486.59;;;30.79;9.75
42727;BME280;28372;56.832;60.658;2023-05-10T04:46:05;98483.72;;;31.32;8.97
42727;BME280;28372;56.832;60.658;2023-05-10T04:48:34;98485.06;;;31.42;8.97
42727;BME280;28372;56.832;60.658;2023-05-10T04:51:02;98482.72;;;31.35;8.83
42727;BME280;28372;56.832;60.658;2023-05-10T04:53:31;98484.44;;;31.26;8.75
42727;BME280;28372;56.832;60.658;2023-05-10T04:55:58;98477.50;;;31.48;8.49
42727;BME280;28372;56.832;60.658;2023-05-10T04:58:26;98487.56;;;31.66;8.19
42727;BME280;28372;56.832;60.658;2023-05-10T05:00:53;98472.50;;;31.58;8.21
42727;BME280;28372;56.832;60.658;2023-05-10T05:03:21;98470.81;;;31.72;8.36
42727;BME280;28372;56.832;60.658;2023-05-10T05:05:49;98471.91;;;31.91;8.18
42727;BME280;28372;56.832;60.658;2023-05-10T05:08:17;98461.50;;;31.98;8.39
42727;BME280;28372;56.832;60.658;2023-05-10T05:10:44;98460.16;;;31.76;8.26
42727;BME280;28372;56.832;60.658;2023-05-10T05:13:12;98472.38;;;31.84;8.29
42727;BME280;28372;56.832;60.658;2023-05-10T05:15:40;98462.25;;;31.98;7.95
42727;BME280;28372;56.832;60.658;2023-05-10T05:18:08;98464.16;;;32.24;7.70
42727;BME280;28372;56.832;60.658;2023-05-10T05:20:35;98452.00;;;32.44;7.89
42727;BME280;28372;56.832;60.658;2023-05-10T05:23:03;98452.72;;;32.33;8.03
42727;BME280;28372;56.832;60.658;2023-05-10T05:25:30;98456.06;;;32.43;7.80
42727;BME280;28372;56.832;60.658;2023-05-10T05:27:58;98446.44;;;32.67;7.67
42727;BME280;28372;56.832;60.658;2023-05-10T05:30:26;98452.84;;;32.73;7.76
42727;BME280;28372;56.832;60.658;2023-05-10T05:32:54;98443.94;;;32.91;7.91
42727;BME280;28372;56.832;60.658;2023-05-10T05:35:22;98444.66;;;33.20;7.51
42727;BME280;28372;56.832;60.658;2023-05-10T05:37:49;98441.09;;;33.42;7.59
42727;BME280;28372;56.832;60.658;2023-05-10T05:40:17;98440.56;;;33.50;7.13
42727;BME280;28372;56.832;60.658;2023-05-10T05:42:46;98441.28;;;33.67;7.40
42727;BME280;28372;56.832;60.658;2023-05-10T05:45:13;98438.47;;;33.73;7.32
42727;BME280;28372;56.832;60.658;2023-05-10T05:47:42;98416.53;;;33.77;7.58
42727;BME280;28372;56.832;60.658;2023-05-10T05:50:09;98441.31;;;33.56;6.86
42727;BME280;28372;56.832;60.658;2023-05-10T05:52:37;98436.78;;;32.90;7.55
42727;BME280;28372;56.832;60.658;2023-05-10T05:55:04;98435.72;;;32.54;7.65
42727;BME280;28372;56.832;60.658;2023-05-10T05:57:32;98421.19;;;32.38;7.64
42727;BME280;28372;56.832;60.658;2023-05-10T06:00:00;98434.81;;;32.08;7.83
42727;BME280;28372;56.832;60.658;2023-05-10T06:02:38;98430.16;;;31.82;7.85
42727;BME280;28372;56.832;60.658;2023-05-10T06:05:06;98426.09;;;31.83;7.80
42727;BME280;28372;56.832;60.658;2023-05-10T06:07:34;98415.19;;;31.97;7.81
42727;BME280;28372;56.832;60.658;2023-05-10T06:10:02;98420.38;;;32.15;7.88
42727;BME280;28372;56.832;60.658;2023-05-10T06:12:30;98407.59;;;32.03;7.92
42727;BME280;28372;56.832;60.658;2023-05-10T06:14:57;98407.78;;;31.82;7.92
42727;BME280;28372;56.832;60.658;2023-05-10T06:17:25;98413.47;;;31.56;8.02
42727;BME280;28372;56.832;60.658;2023-05-10T06:19:52;98402.19;;;31.33;8.35
42727;BME280;28372;56.832;60.658;2023-05-10T06:22:20;98396.06;;;31.29;8.12
42727;BME280;28372;56.832;60.658;2023-05-10T06:24:49;98397.06;;;31.26;8.12
42727;BME280;28372;56.832;60.658;2023-05-10T06:27:17;98387.94;;;31.25;8.15
42727;BME280;28372;56.832;60.658;2023-05-10T06:29:44;98387.38;;;31.21;8.31
42727;BME280;28372;56.832;60.658;2023-05-10T06:32:12;98387.19;;;31.36;8.52
42727;BME280;28372;56.832;60.658;2023-05-10T06:34:39;98390.06;;;31.48;8.11
42727;BME280;28372;56.832;60.658;2023-05-10T06:37:07;98384.50;;;31.53;7.54
42727;BME280;28372;56.832;60.658;2023-05-10T06:39:34;98397.69;;;31.47;8.06
42727;BME280;28372;56.832;60.658;2023-05-10T06:42:01;98392.13;;;30.78;8.14
42727;BME280;28372;56.832;60.658;2023-05-10T06:44:32;98385.94;;;30.68;8.15
42727;BME280;28372;56.832;60.658;2023-05-10T06:46:59;98380.81;;;30.61;8.10
42727;BME280;28372;56.832;60.658;2023-05-10T06:49:27;98369.38;;;30.58;8.68
42727;BME280;28372;56.832;60.658;2023-05-10T06:51:58;98389.22;;;30.66;8.67
42727;BME280;28372;56.832;60.658;2023-05-10T06:54:25;98376.06;;;30.67;8.28
42727;BME280;28372;56.832;60.658;2023-05-10T06:56:53;98372.06;;;30.73;8.12
42727;BME280;28372;56.832;60.658;2023-05-10T06:59:21;98371.41;;;30.90;7.97
42727;BME280;28372;56.832;60.658;2023-05-10T07:01:48;98367.44;;;31.02;8.19
42727;BME280;28372;56.832;60.658;2023-05-10T07:04:16;98360.50;;;31.30;7.86
42727;BME280;28372;56.832;60.658;2023-05-10T07:06:44;98359.16;;;31.68;8.03
42727;BME280;28372;56.832;60.658;2023-05-10T07:09:13;98356.72;;;31.93;8.40
42727;BME280;28372;56.832;60.658;2023-05-10T07:11:41;98353.47;;;32.17;8.16
42727;BME280;28372;56.832;60.658;2023-05-10T07:14:08;98353.00;;;32.53;7.69
42727;BME280;28372;56.832;60.658;2023-05-10T07:16:36;98351.44;;;32.40;7.40
42727;BME280;28372;56.832;60.658;2023-05-10T07:19:04;98337.72;;;32.14;7.49
42727;BME280;28372;56.832;60.658;2023-05-10T07:21:32;98324.94;;;31.96;7.62
42727;BME280;28372;56.832;60.658;2023-05-10T07:24:00;98330.25;;;32.00;8.17
42727;BME280;28372;56.832;60.658;2023-05-10T07:26:28;98335.09;;;31.93;7.96
42727;BME280;28372;56.832;60.658;2023-05-10T07:28:56;98334.06;;;31.91;7.85
42727;BME280;28372;56.832;60.658;2023-05-10T07:31:23;98327.41;;;31.71;8.04
42727;BME280;28372;56.832;60.658;2023-05-10T07:33:51;98338.56;;;31.17;8.07
42727;BME280;28372;56.832;60.658;2023-05-10T07:36:18;98333.56;;;30.51;7.99
42727;BME280;28372;56.832;60.658;2023-05-10T07:38:46;98329.06;;;30.07;8.29
42727;BME280;28372;56.832;60.658;2023-05-10T07:41:13;98318.66;;;29.81;8.43
42727;BME280;28372;56.832;60.658;2023-05-10T07:43:41;98323.94;;;29.79;8.77
42727;BME280;28372;56.832;60.658;2023-05-10T07:46:08;98316.66;;;29.41;8.58
42727;BME280;28372;56.832;60.658;2023-05-10T07:48:37;98319.88;;;29.33;8.70
42727;BME280;28372;56.832;60.658;2023-05-10T07:51:04;98320.25;;;29.26;8.92
42727;BME280;28372;56.832;60.658;2023-05-10T07:53:34;98301.78;;;29.08;8.88
42727;BME280;28372;56.832;60.658;2023-05-10T07:56:23;98323.53;;;29.45;8.89
42727;BME280;28372;56.832;60.658;2023-05-10T07:58:56;98313.13;;;28.69;9.02
42727;BME280;28372;56.832;60.658;2023-05-10T08:01:25;98317.22;;;28.74;8.80
42727;BME280;28372;56.832;60.658;2023-05-10T08:03:52;98301.28;;;28.74;8.82
42727;BME280;28372;56.832;60.658;2023-05-10T08:06:21;98289.88;;;28.57;9.27
42727;BME280;28372;56.832;60.658;2023-05-10T08:08:49;98289.22;;;28.47;9.63
42727;BME280;28372;56.832;60.658;2023-05-10T08:11:18;98300.06;;;28.45;9.32
42727;BME280;28372;56.832;60.658;2023-05-10T08:13:46;98300.56;;;28.14;9.45
42727;BME280;28372;56.832;60.658;2023-05-10T08:16:14;98292.53;;;27.77;9.60
42727;BME280;28372;56.832;60.658;2023-05-10T08:18:44;98293.59;;;27.79;9.50
42727;BME280;28372;56.832;60.658;2023-05-10T08:21:13;98301.41;;;27.51;9.74
42727;BME280;28372;56.832;60.658;2023-05-10T08:23:41;98281.91;;;27.12;9.55
42727;BME280;28372;56.832;60.658;2023-05-10T08:26:08;98274.25;;;26.97;9.82
42727;BME280;28372;56.832;60.658;2023-05-10T08:28:36;98268.59;;;27.16;9.90
42727;BME280;28372;56.832;60.658;2023-05-10T08:31:04;98270.25;;;26.98;9.59
42727;BME280;28372;56.832;60.658;2023-05-10T08:33:32;98256.44;;;26.89;10.00
42727;BME280;28372;56.832;60.658;2023-05-10T08:35:59;98254.47;;;26.80;10.06
42727;BME280;28372;56.832;60.658;2023-05-10T08:38:27;98250.19;;;26.79;10.05
42727;BME280;28372;56.832;60.658;2023-05-10T08:40:55;98256.44;;;26.56;10.08
42727;BME280;28372;56.832;60.658;2023-05-10T08:43:29;98246.47;;;26.40;10.31
42727;BME280;28372;56.832;60.658;2023-05-10T08:46:00;98243.53;;;26.43;10.51
42727;BME280;28372;56.832;60.658;2023-05-10T08:48:29;98250.75;;;25.89;10.49
42727;BME280;28372;56.832;60.658;2023-05-10T08:50:58;98245.19;;;25.89;10.55
42727;BME280;28372;56.832;60.658;2023-05-10T08:53:31;98247.94;;;26.07;10.39
42727;BME280;28372;56.832;60.658;2023-05-10T08:56:01;98242.91;;;25.78;10.75
42727;BME280;28372;56.832;60.658;2023-05-10T08:58:29;98226.63;;;25.43;10.78
42727;BME280;28372;56.832;60.658;2023-05-10T09:00:58;98226.16;;;25.35;10.56
42727;BME280;28372;56.832;60.658;2023-05-10T09:03:26;98229.88;;;24.73;10.92
42727;BME280;28372;56.832;60.658;2023-05-10T09:05:54;98219.06;;;24.16;11.32
42727;BME280;28372;56.832;60.658;2023-05-10T09:08:24;98230.91;;;23.94;11.26
42727;BME280;28372;56.832;60.658;2023-05-10T09:10:54;98221.69;;;23.88;11.36
42727;BME280;28372;56.832;60.658;2023-05-10T09:13:23;98229.59;;;23.86;11.46
42727;BME280;28372;56.832;60.658;2023-05-10T09:15:51;98223.41;;;23.72;11.47
42727;BME280;28372;56.832;60.658;2023-05-10T09:18:20;98217.75;;;23.54;11.53
42727;BME280;28372;56.832;60.658;2023-05-10T09:20:48;98217.03;;;23.40;11.59
42727;BME280;28372;56.832;60.658;2023-05-10T09:23:16;98207.66;;;23.38;11.54
42727;BME280;28372;56.832;60.658;2023-05-10T09:25:43;98208.28;;;23.42;12.01
42727;BME280;28372;56.832;60.658;2023-05-10T09:28:11;98210.34;;;23.51;11.57
42727;BME280;28372;56.832;60.658;2023-05-10T09:30:39;98199.44;;;23.47;11.41
42727;BME280;28372;56.832;60.658;2023-05-10T09:33:06;98206.91;;;22.89;11.56
42727;BME280;28372;56.832;60.658;2023-05-10T09:35:35;98196.78;;;22.61;11.90
42727;BME280;28372;56.832;60.658;2023-05-10T09:38:04;98212.91;;;22.49;12.04
42727;BME280;28372;56.832;60.658;2023-05-10T09:40:32;98194.03;;;22.22;12.24
42727;BME280;28372;56.832;60.658;2023-05-10T09:43:02;98197.41;;;21.87;12.57
42727;BME280;28372;56.832;60.658;2023-05-10T09:45:31;98195.84;;;21.44;12.52
42727;BME280;28372;56.832;60.658;2023-05-10T09:48:04;98179.44;;;21.41;12.52
42727;BME280;28372;56.832;60.658;2023-05-10T09:50:32;98178.28;;;21.25;12.53
42727;BME280;28372;56.832;60.658;2023-05-10T09:53:01;98177.72;;;21.30;12.65
42727;BME280;28372;56.832;60.658;2023-05-10T09:55:44;98187.19;;;21.59;12.38
42727;BME280;28372;56.832;60.658;2023-05-10T09:58:13;98172.84;;;20.92;12.67
42727;BME280;28372;56.832;60.658;2023-05-10T10:00:45;98167.75;;;20.58;12.96
42727;BME280;28372;56.832;60.658;2023-05-10T10:03:20;98173.53;;;20.47;13.15
42727;BME280;28372;56.832;60.658;2023-05-10T10:05:48;98161.00;;;20.62;13.09
42727;BME280;28372;56.832;60.658;2023-05-10T10:08:17;98169.75;;;20.57;13.25
42727;BME280;28372;56.832;60.658;2023-05-10T10:10:46;98158.50;;;20.18;13.67
42727;BME280;28372;56.832;60.658;2023-05-10T10:13:14;98159.75;;;20.14;13.50
42727;BME280;28372;56.832;60.658;2023-05-10T10:15:42;98150.06;;;20.09;13.56
42727;BME280;28372;56.832;60.658;2023-05-10T10:18:14;98137.78;;;20.14;13.47
42727;BME280;28372;56.832;60.658;2023-05-10T10:20:42;98139.50;;;20.08;13.25
42727;BME280;28372;56.832;60.658;2023-05-10T10:23:10;98135.38;;;19.99;13.60
42727;BME280;28372;56.832;60.658;2023-05-10T10:25:37;98132.25;;;19.81;13.66
42727;BME280;28372;56.832;60.658;2023-05-10T10:28:24;98134.28;;;20.13;13.48
42727;BME280;28372;56.832;60.658;2023-05-10T10:30:55;98131.44;;;20.00;13.62
42727;BME280;28372;56.832;60.658;2023-05-10T10:33:46;98133.16;;;20.27;13.67
42727;BME280;28372;56.832;60.658;2023-05-10T10:36:18;98133.34;;;19.63;13.89
42727;BME280;28372;56.832;60.658;2023-05-10T10:47:05;98107.09;;;19.62;13.77
42727;BME280;28372;56.832;60.658;2023-05-10T10:49:43;98111.75;;;19.85;13.83
42727;BME280;28372;56.832;60.658;2023-05-10T10:54:53;98105.53;;;19.45;14.08
42727;BME280;28372;56.832;60.658;2023-05-10T10:57:21;98104.47;;;18.98;14.40
42727;BME280;28372;56.832;60.658;2023-05-10T10:59:49;98090.06;;;18.94;14.43
42727;BME280;28372;56.832;60.658;2023-05-10T11:02:34;98093.16;;;19.16;14.37
42727;BME280;28372;56.832;60.658;2023-05-10T11:10:35;98082.75;;;19.28;14.32
42727;BME280;28372;56.832;60.658;2023-05-10T11:13:08;98085.91;;;19.46;14.19
42727;BME280;28372;56.832;60.658;2023-05-10T11:15:37;98078.09;;;19.45;14.04
42727;BME280;28372;56.832;60.658;2023-05-10T11:18:25;98065.28;;;19.58;14.32
42727;BME280;28372;56.832;60.658;2023-05-10T11:20:57;98078.03;;;19.28;14.31
42727;BME280;28372;56.832;60.658;2023-05-10T11:23:52;98072.34;;;19.39;14.07
42727;BME280;28372;56.832;60.658;2023-05-10T11:26:25;98064.50;;;19.01;14.19
42727;BME280;28372;56.832;60.658;2023-05-10T11:28:54;98066.53;;;18.73;14.82
42727;BME280;28372;56.832;60.658;2023-05-10T11:31:25;98063.78;;;18.53;14.48
42727;BME280;28372;56.832;60.658;2023-05-10T11:33:56;98061.66;;;18.61;15.06
42727;BME280;28372;56.832;60.658;2023-05-10T11:36:26;98063.78;;;18.53;14.77
42727;BME280;28372;56.832;60.658;2023-05-10T11:38:55;98062.22;;;18.52;14.32
42727;BME280;28372;56.832;60.658;2023-05-10T11:41:30;98059.63;;;18.45;14.52
42727;BME280;28372;56.832;60.658;2023-05-10T11:43:58;98044.91;;;18.59;14.53
42727;BME280;28372;56.832;60.658;2023-05-10T11:46:27;98047.00;;;18.71;14.58
42727;BME280;28372;56.832;60.658;2023-05-10T11:48:59;98040.28;;;18.76;14.39
42727;BME280;28372;56.832;60.658;2023-05-10T11:51:34;98035.63;;;18.73;14.42
42727;BME280;28372;56.832;60.658;2023-05-10T11:54:07;98035.13;;;18.78;14.80
42727;BME280;28372;56.832;60.658;2023-05-10T11:56:40;98033.09;;;18.82;14.49
42727;BME280;28372;56.832;60.658;2023-05-10T11:59:07;98020.94;;;18.63;14.60
42727;BME280;28372;56.832;60.658;2023-05-10T12:01:36;98017.28;;;18.70;14.53
42727;BME280;28372;56.832;60.658;2023-05-10T12:04:03;98020.78;;;18.50;14.83
42727;BME280;28372;56.832;60.658;2023-05-10T12:06:40;98020.53;;;18.64;14.73
42727;BME280;28372;56.832;60.658;2023-05-10T12:09:08;98010.19;;;18.52;14.30
42727;BME280;28372;56.832;60.658;2023-05-10T12:11:39;98017.28;;;18.49;14.76
42727;BME280;28372;56.832;60.658;2023-05-10T12:14:10;98008.63;;;18.51;14.76
42727;BME280;28372;56.832;60.658;2023-05-10T12:16:38;97999.66;;;18.51;14.69
42727;BME280;28372;56.832;60.658;2023-05-10T12:19:06;97993.31;;;18.54;14.94
42727;BME280;28372;56.832;60.658;2023-05-10T12:21:34;97988.19;;;18.56;15.39
42727;BME280;28372;56.832;60.658;2023-05-10T12:24:04;98000.97;;;18.62;15.38
42727;BME280;28372;56.832;60.658;2023-05-10T12:26:35;97983.28;;;18.47;14.92
42727;BME280;28372;56.832;60.658;2023-05-10T12:29:14;97987.78;;;18.57;15.00
42727;BME280;28372;56.832;60.658;2023-05-10T12:31:54;97990.94;;;18.56;14.78
42727;BME280;28372;56.832;60.658;2023-05-10T12:34:41;97990.31;;;18.48;14.52
42727;BME280;28372;56.832;60.658;2023-05-10T12:37:09;97980.63;;;18.43;14.44
42727;BME280;28372;56.832;60.658;2023-05-10T12:39:41;97987.09;;;18.53;14.66
42727;BME280;28372;56.832;60.658;2023-05-10T12:42:10;97993.38;;;18.50;14.77
42727;BME280;28372;56.832;60.658;2023-05-10T12:44:38;97979.69;;;18.50;14.58
42727;BME280;28372;56.832;60.658;2023-05-10T12:47:05;97973.41;;;18.53;14.61
42727;BME280;28372;56.832;60.658;2023-05-10T12:49:33;97971.47;;;18.50;14.58
42727;BME280;28372;56.832;60.658;2023-05-10T12:52:01;97974.09;;;18.57;14.68
42727;BME280;28372;56.832;60.658;2023-05-10T12:54:28;97963.97;;;18.54;14.72
42727;BME280;28372;56.832;60.658;2023-05-10T12:56:56;97961.72;;;18.49;14.66
42727;BME280;28372;56.832;60.658;2023-05-10T12:59:24;97968.97;;;18.39;14.52
42727;BME280;28372;56.832;60.658;2023-05-10T13:01:51;97952.25;;;18.34;14.67
42727;BME280;28372;56.832;60.658;2023-05-10T13:04:19;97955.19;;;18.43;14.77
42727;BME280;28372;56.832;60.658;2023-05-10T13:06:46;97955.84;;;18.51;14.91
42727;BME280;28372;56.832;60.658;2023-05-10T13:09:14;97957.66;;;18.57;15.09
42727;BME280;28372;56.832;60.658;2023-05-10T13:11:42;97949.56;;;18.50;14.91
42727;BME280;28372;56.832;60.658;2023-05-10T13:14:09;97957.16;;;18.42;14.86
42727;BME280;28372;56.832;60.658;2023-05-10T13:16:37;97955.50;;;18.25;14.83
42727;BME280;28372;56.832;60.658;2023-05-10T13:19:05;97941.25;;;18.13;14.86
42727;BME280;28372;56.832;60.658;2023-05-10T13:21:32;97945.94;;;18.13;15.11
42727;BME280;28372;56.832;60.658;2023-05-10T13:24:00;97954.59;;;18.11;14.66
42727;BME280;28372;56.832;60.658;2023-05-10T13:26:28;97954.22;;;18.09;14.67
42727;BME280;28372;56.832;60.658;2023-05-10T13:28:56;97948.16;;;17.98;14.68
42727;BME280;28372;56.832;60.658;2023-05-10T13:31:23;97956.03;;;17.96;14.80
42727;BME280;28372;56.832;60.658;2023-05-10T13:33:51;97945.84;;;17.96;14.74
42727;BME280;28372;56.832;60.658;2023-05-10T13:36:18;97945.72;;;18.04;14.98
42727;BME280;28372;56.832;60.658;2023-05-10T13:38:46;97944.25;;;17.99;14.66